sensor_id;sensor_type;location;lat;lon;timestamp;P1;durP1;ratioP1;P2;durP2;ratioP2
65370;SDS011;58485;59.934;30.352;2022-09-09T00:00:42;3.30;;;2.80;;
65370;SDS011;58485;59.934;30.352;2022-09-09T00:01:41;5.55;;;2.90;;
65370;SDS011;58485;59.934;30.352;2022-09-09T00:02:41;2.85;;;2.65;;
65370;SDS011;58485;59.934;30.352;2022-09-09T00:03:43;4.15;;;2.75;;
65370;SDS011;58485;59.934;30.352;2022-09-09T00:04:41;3.40;;;3.10;;
65370;SDS011;58485;59.934;30.352;2022-09-09T00:05:36;3.22;;;2.88;;
65370;SDS011;58485;59.934;30.352;2022-09-09T00:06:43;3.10;;;2.75;;
65370;SDS011;58485;59.934;30.352;2022-09-09T00:07:38;3.10;;;2.78;;
65370;SDS011;58485;59.934;30.352;2022-09-09T00:08:41;6.35;;;2.83;;
65370;SDS011;58485;59.934;30.352;2022-09-09T00:09:44;2.75;;;2.58;;
65370;SDS011;58485;59.934;30.352;2022-09-09T00:10:40;2.95;;;2.75;;
65370;SDS011;58485;59.934;30.352;2022-09-09T00:11:34;4.10;;;3.17;;
65370;SDS011;58485;59.934;30.352;2022-09-09T00:12:34;2.63;;;2.40;;
65370;SDS011;58485;59.934;30.352;2022-09-09T00:13:33;3.92;;;3.15;;
65370;SDS011;58485;59.934;30.352;2022-09-09T00:14:33;3.47;;;2.97;;
65370;SDS011;58485;59.934;30.352;2022-09-09T00:15:34;4.10;;;2.80;;
65370;SDS011;58485;59.934;30.352;2022-09-09T00:16:32;3.85;;;2.90;;
65370;SDS011;58485;59.934;30.352;2022-09-09T00:17:31;3.63;;;3.03;;
65370;SDS011;58485;59.934;30.352;2022-09-09T00:18:31;2.80;;;2.60;;
65370;SDS011;58485;59.934;30.352;2022-09-09T00:19:33;2.97;;;2.65;;
65370;SDS011;58485;59.934;30.352;2022-09-09T00:20:33;2.72;;;2.53;;
65370;SDS011;58485;59.934;30.352;2022-09-09T00:21:33;2.90;;;2.70;;
65370;SDS011;58485;59.934;30.352;2022-09-09T00:22:27;3.20;;;3.00;;
65370;SDS011;58485;59.934;30.352;2022-09-09T00:23:23;3.65;;;2.67;;
65370;SDS011;58485;59.934;30.352;2022-09-09T00:24:19;2.63;;;2.20;;
65370;SDS011;58485;59.934;30.352;2022-09-09T00:25:17;3.05;;;2.50;;
65370;SDS011;58485;59.934;30.352;2022-09-09T00:26:18;2.85;;;2.58;;
65370;SDS011;58485;59.934;30.352;2022-09-09T00:27:23;4.88;;;2.30;;
65370;SDS011;58485;59.934;30.352;2022-09-09T00:28:24;3.45;;;2.78;;
65370;SDS011;58485;59.934;30.352;2022-09-09T00:29:20;6.30;;;2.80;;
65370;SDS011;58485;59.934;30.352;2022-09-09T00:30:21;2.70;;;2.50;;
65370;SDS011;58485;59.934;30.352;2022-09-09T00:31:16;3.03;;;2.67;;
65370;SDS011;58485;59.934;30.352;2022-09-09T00:32:13;3.20;;;2.90;;
65370;SDS011;58485;59.934;30.352;2022-09-09T00:33:10;2.92;;;2.50;;
65370;SDS011;58485;59.934;30.352;2022-09-09T00:34:08;3.08;;;2.35;;
65370;SDS011;58485;59.934;30.352;2022-09-09T00:35:10;4.13;;;2.47;;
65370;SDS011;58485;59.934;30.352;2022-09-09T00:36:09;2.58;;;2.38;;
65370;SDS011;58485;59.934;30.352;2022-09-09T00:37:07;4.68;;;2.08;;
65370;SDS011;58485;59.934;30.352;2022-09-09T00:38:00;5.60;;;2.53;;
65370;SDS011;58485;59.934;30.352;2022-09-09T00:38:59;3.65;;;2.75;;
65370;SDS011;58485;59.934;30.352;2022-09-09T00:39:52;2.63;;;2.42;;
65370;SDS011;58485;59.934;30.352;2022-09-09T00:40:50;2.40;;;2.03;;
65370;SDS011;58485;59.934;30.352;2022-09-09T00:41:47;2.58;;;2.30;;
65370;SDS011;58485;59.934;30.352;2022-09-09T00:42:55;2.60;;;2.40;;
65370;SDS011;58485;59.934;30.352;2022-09-09T00:44:09;2.67;;;2.47;;
65370;SDS011;58485;59.934;30.352;2022-09-09T00:45:25;2.53;;;2.33;;
65370;SDS011;58485;59.934;30.352;2022-09-09T00:46:49;3.60;;;2.85;;
65370;SDS011;58485;59.934;30.352;2022-09-09T00:47:49;2.67;;;2.45;;
65370;SDS011;58485;59.934;30.352;2022-09-09T00:48:44;3.05;;;2.75;;
65370;SDS011;58485;59.934;30.352;2022-09-09T00:49:46;4.97;;;2.45;;
65370;SDS011;58485;59.934;30.352;2022-09-09T00:50:53;3.13;;;2.88;;
65370;SDS011;58485;59.934;30.352;2022-09-09T00:51:50;4.40;;;2.47;;
65370;SDS011;58485;59.934;30.352;2022-09-09T00:52:53;2.85;;;2.65;;
65370;SDS011;58485;59.934;30.352;2022-09-09T00:54:01;2.50;;;2.30;;
65370;SDS011;58485;59.934;30.352;2022-09-09T00:55:10;2.95;;;2.53;;
65370;SDS011;58485;59.934;30.352;2022-09-09T00:56:12;3.10;;;2.90;;
65370;SDS011;58485;59.934;30.352;2022-09-09T00:57:13;3.88;;;2.95;;
65370;SDS011;58485;59.934;30.352;2022-09-09T00:58:14;5.80;;;2.65;;
65370;SDS011;58485;59.934;30.352;2022-09-09T00:59:08;2.65;;;2.45;;
65370;SDS011;58485;59.934;30.352;2022-09-09T01:00:18;3.20;;;2.95;;
65370;SDS011;58485;59.934;30.352;2022-09-09T01:01:13;2.75;;;2.45;;
65370;SDS011;58485;59.934;30.352;2022-09-09T01:02:07;2.90;;;2.70;;
65370;SDS011;58485;59.934;30.352;2022-09-09T01:04:27;3.67;;;2.67;;
65370;SDS011;58485;59.934;30.352;2022-09-09T01:05:26;4.60;;;2.70;;
65370;SDS011;58485;59.934;30.352;2022-09-09T01:06:28;3.35;;;2.72;;
65370;SDS011;58485;59.934;30.352;2022-09-09T01:07:22;5.30;;;2.50;;
65370;SDS011;58485;59.934;30.352;2022-09-09T01:08:18;3.25;;;2.95;;
65370;SDS011;58485;59.934;30.352;2022-09-09T01:09:29;3.35;;;2.72;;
65370;SDS011;58485;59.934;30.352;2022-09-09T01:10:32;2.78;;;2.58;;
65370;SDS011;58485;59.934;30.352;2022-09-09T01:11:35;3.05;;;2.45;;
65370;SDS011;58485;59.934;30.352;2022-09-09T01:12:42;3.28;;;2.80;;
65370;SDS011;58485;59.934;30.352;2022-09-09T01:13:37;2.95;;;2.70;;
65370;SDS011;58485;59.934;30.352;2022-09-09T01:14:32;3.03;;;2.78;;
65370;SDS011;58485;59.934;30.352;2022-09-09T01:15:30;3.70;;;2.75;;
65370;SDS011;58485;59.934;30.352;2022-09-09T01:16:24;3.58;;;2.45;;
65370;SDS011;58485;59.934;30.352;2022-09-09T01:17:17;2.67;;;2.47;;
65370;SDS011;58485;59.934;30.352;2022-09-09T01:18:15;2.85;;;2.65;;
65370;SDS011;58485;59.934;30.352;2022-09-09T01:19:09;5.50;;;2.63;;
65370;SDS011;58485;59.934;30.352;2022-09-09T01:20:12;3.03;;;2.72;;
65370;SDS011;58485;59.934;30.352;2022-09-09T01:21:09;2.97;;;2.58;;
65370;SDS011;58485;59.934;30.352;2022-09-09T01:22:14;3.65;;;3.20;;
65370;SDS011;58485;59.934;30.352;2022-09-09T01:23:30;2.83;;;2.58;;
65370;SDS011;58485;59.934;30.352;2022-09-09T01:24:35;2.80;;;2.60;;
65370;SDS011;58485;59.934;30.352;2022-09-09T01:27:10;5.57;;;2.95;;
65370;SDS011;58485;59.934;30.352;2022-09-09T01:28:02;4.05;;;3.22;;
65370;SDS011;58485;59.934;30.352;2022-09-09T01:29:00;4.20;;;3.13;;
65370;SDS011;58485;59.934;30.352;2022-09-09T01:29:51;3.22;;;2.90;;
65370;SDS011;58485;59.934;30.352;2022-09-09T01:30:43;3.65;;;3.03;;
65370;SDS011;58485;59.934;30.352;2022-09-09T01:31:36;5.38;;;3.05;;
65370;SDS011;58485;59.934;30.352;2022-09-09T01:32:38;2.72;;;2.53;;
65370;SDS011;58485;59.934;30.352;2022-09-09T01:33:32;3.30;;;3.05;;
65370;SDS011;58485;59.934;30.352;2022-09-09T01:34:25;3.05;;;2.65;;
65370;SDS011;58485;59.934;30.352;2022-09-09T01:35:23;3.40;;;3.10;;
65370;SDS011;58485;59.934;30.352;2022-09-09T01:36:32;4.22;;;3.15;;
65370;SDS011;58485;59.934;30.352;2022-09-09T01:37:30;2.83;;;2.63;;
65370;SDS011;58485;59.934;30.352;2022-09-09T01:38:22;3.88;;;3.10;;
65370;SDS011;58485;59.934;30.352;2022-09-09T01:39:15;3.03;;;2.72;;
65370;SDS011;58485;59.934;30.352;2022-09-09T01:40:07;9.65;;;3.08;;
65370;SDS011;58485;59.934;30.352;2022-09-09T01:40:59;3.70;;;3.33;;
65370;SDS011;58485;59.934;30.352;2022-09-09T01:41:53;3.90;;;3.42;;
65370;SDS011;58485;59.934;30.352;2022-09-09T01:42:46;3.03;;;2.75;;
65370;SDS011;58485;59.934;30.352;2022-09-09T01:43:39;3.30;;;3.00;;
65370;SDS011;58485;59.934;30.352;2022-09-09T01:44:30;3.10;;;2.90;;
65370;SDS011;58485;59.934;30.352;2022-09-09T01:45:23;3.65;;;3.10;;
65370;SDS011;58485;59.934;30.352;2022-09-09T01:46:15;2.58;;;2.38;;
65370;SDS011;58485;59.934;30.352;2022-09-09T01:47:07;2.60;;;2.40;;
65370;SDS011;58485;59.934;30.352;2022-09-09T01:48:00;3.97;;;3.20;;
65370;SDS011;58485;59.934;30.352;2022-09-09T01:48:53;3.33;;;3.08;;
65370;SDS011;58485;59.934;30.352;2022-09-09T01:49:46;4.25;;;2.97;;
65370;SDS011;58485;59.934;30.352;2022-09-09T01:50:38;3.70;;;3.40;;
65370;SDS011;58485;59.934;30.352;2022-09-09T01:51:30;4.03;;;3.45;;
65370;SDS011;58485;59.934;30.352;2022-09-09T01:52:21;3.75;;;2.80;;
65370;SDS011;58485;59.934;30.352;2022-09-09T01:53:14;4.78;;;3.40;;
65370;SDS011;58485;59.934;30.352;2022-09-09T01:54:07;3.70;;;2.95;;
65370;SDS011;58485;59.934;30.352;2022-09-09T01:55:00;3.20;;;2.90;;
65370;SDS011;58485;59.934;30.352;2022-09-09T01:55:55;3.03;;;2.83;;
65370;SDS011;58485;59.934;30.352;2022-09-09T01:57:01;4.43;;;3.05;;
65370;SDS011;58485;59.934;30.352;2022-09-09T01:58:06;3.20;;;2.88;;
65370;SDS011;58485;59.934;30.352;2022-09-09T01:59:15;5.63;;;2.75;;
65370;SDS011;58485;59.934;30.352;2022-09-09T02:00:18;3.67;;;2.55;;
65370;SDS011;58485;59.934;30.352;2022-09-09T02:01:14;5.45;;;3.00;;
65370;SDS011;58485;59.934;30.352;2022-09-09T02:02:14;4.82;;;3.10;;
65370;SDS011;58485;59.934;30.352;2022-09-09T02:03:13;3.78;;;3.35;;
65370;SDS011;58485;59.934;30.352;2022-09-09T02:04:17;3.67;;;2.83;;
65370;SDS011;58485;59.934;30.352;2022-09-09T02:06:24;4.20;;;2.53;;
65370;SDS011;58485;59.934;30.352;2022-09-09T02:07:24;5.95;;;3.25;;
65370;SDS011;58485;59.934;30.352;2022-09-09T02:08:29;2.60;;;2.40;;
65370;SDS011;58485;59.934;30.352;2022-09-09T02:09:31;3.22;;;2.88;;
65370;SDS011;58485;59.934;30.352;2022-09-09T02:10:24;6.10;;;3.20;;
65370;SDS011;58485;59.934;30.352;2022-09-09T02:11:23;4.43;;;3.22;;
65370;SDS011;58485;59.934;30.352;2022-09-09T02:12:18;2.88;;;2.67;;
65370;SDS011;58485;59.934;30.352;2022-09-09T02:13:15;3.03;;;2.65;;
65370;SDS011;58485;59.934;30.352;2022-09-09T02:14:10;2.97;;;2.67;;
65370;SDS011;58485;59.934;30.352;2022-09-09T02:15:10;3.47;;;2.90;;
65370;SDS011;58485;59.934;30.352;2022-09-09T02:16:11;3.47;;;3.17;;
65370;SDS011;58485;59.934;30.352;2022-09-09T02:17:10;4.55;;;3.08;;
65370;SDS011;58485;59.934;30.352;2022-09-09T02:18:05;3.08;;;2.83;;
65370;SDS011;58485;59.934;30.352;2022-09-09T02:19:01;3.10;;;2.80;;
65370;SDS011;58485;59.934;30.352;2022-09-09T02:19:59;6.22;;;2.63;;
65370;SDS011;58485;59.934;30.352;2022-09-09T02:20:57;3.95;;;2.40;;
65370;SDS011;58485;59.934;30.352;2022-09-09T02:21:50;2.60;;;2.38;;
65370;SDS011;58485;59.934;30.352;2022-09-09T02:22:46;3.40;;;2.65;;
65370;SDS011;58485;59.934;30.352;2022-09-09T02:23:40;10.07;;;3.20;;
65370;SDS011;58485;59.934;30.352;2022-09-09T02:24:35;3.70;;;3.15;;
65370;SDS011;58485;59.934;30.352;2022-09-09T02:25:30;3.28;;;2.97;;
65370;SDS011;58485;59.934;30.352;2022-09-09T02:26:22;3.88;;;2.78;;
65370;SDS011;58485;59.934;30.352;2022-09-09T02:27:16;2.72;;;2.50;;
65370;SDS011;58485;59.934;30.352;2022-09-09T02:28:11;3.40;;;3.00;;
65370;SDS011;58485;59.934;30.352;2022-09-09T02:29:06;3.28;;;2.70;;
65370;SDS011;58485;59.934;30.352;2022-09-09T02:30:03;4.40;;;2.80;;
65370;SDS011;58485;59.934;30.352;2022-09-09T02:30:56;3.42;;;2.97;;
65370;SDS011;58485;59.934;30.352;2022-09-09T02:31:48;4.47;;;3.00;;
65370;SDS011;58485;59.934;30.352;2022-09-09T02:32:41;2.90;;;2.63;;
65370;SDS011;58485;59.934;30.352;2022-09-09T02:33:36;3.38;;;2.92;;
65370;SDS011;58485;59.934;30.352;2022-09-09T02:34:33;2.60;;;2.40;;
65370;SDS011;58485;59.934;30.352;2022-09-09T02:35:28;2.95;;;2.65;;
65370;SDS011;58485;59.934;30.352;2022-09-09T02:36:22;3.10;;;2.83;;
65370;SDS011;58485;59.934;30.352;2022-09-09T02:37:20;3.28;;;2.67;;
65370;SDS011;58485;59.934;30.352;2022-09-09T02:38:15;3.33;;;3.03;;
65370;SDS011;58485;59.934;30.352;2022-09-09T02:39:08;2.45;;;2.25;;
65370;SDS011;58485;59.934;30.352;2022-09-09T02:40:01;3.53;;;3.25;;
65370;SDS011;58485;59.934;30.352;2022-09-09T02:40:54;4.68;;;3.15;;
65370;SDS011;58485;59.934;30.352;2022-09-09T02:41:45;5.70;;;2.97;;
65370;SDS011;58485;59.934;30.352;2022-09-09T02:42:40;3.03;;;2.80;;
65370;SDS011;58485;59.934;30.352;2022-09-09T02:43:33;2.60;;;2.40;;
65370;SDS011;58485;59.934;30.352;2022-09-09T02:44:26;2.58;;;2.30;;
65370;SDS011;58485;59.934;30.352;2022-09-09T02:45:19;9.55;;;2.78;;
65370;SDS011;58485;59.934;30.352;2022-09-09T02:46:22;4.18;;;2.63;;
65370;SDS011;58485;59.934;30.352;2022-09-09T02:47:29;2.45;;;2.25;;
65370;SDS011;58485;59.934;30.352;2022-09-09T02:49:23;2.72;;;2.53;;
65370;SDS011;58485;59.934;30.352;2022-09-09T02:50:29;2.58;;;2.38;;
65370;SDS011;58485;59.934;30.352;2022-09-09T02:51:25;2.97;;;2.67;;
65370;SDS011;58485;59.934;30.352;2022-09-09T02:52:26;2.85;;;2.65;;
65370;SDS011;58485;59.934;30.352;2022-09-09T02:53:31;2.80;;;2.60;;
65370;SDS011;58485;59.934;30.352;2022-09-09T02:54:33;3.08;;;2.78;;
65370;SDS011;58485;59.934;30.352;2022-09-09T02:55:30;2.58;;;2.38;;
65370;SDS011;58485;59.934;30.352;2022-09-09T02:56:30;3.17;;;2.40;;
65370;SDS011;58485;59.934;30.352;2022-09-09T02:57:26;3.53;;;2.10;;
65370;SDS011;58485;59.934;30.352;2022-09-09T02:58:23;2.88;;;2.65;;
65370;SDS011;58485;59.934;30.352;2022-09-09T02:59:15;2.42;;;2.30;;
65370;SDS011;58485;59.934;30.352;2022-09-09T03:00:09;3.22;;;2.90;;
65370;SDS011;58485;59.934;30.352;2022-09-09T03:01:01;2.65;;;2.45;;
65370;SDS011;58485;59.934;30.352;2022-09-09T03:01:54;5.88;;;2.50;;
65370;SDS011;58485;59.934;30.352;2022-09-09T03:02:45;8.57;;;2.33;;
65370;SDS011;58485;59.934;30.352;2022-09-09T03:03:37;2.85;;;2.55;;
65370;SDS011;58485;59.934;30.352;2022-09-09T03:04:29;2.88;;;2.00;;
65370;SDS011;58485;59.934;30.352;2022-09-09T03:05:21;5.40;;;2.10;;
65370;SDS011;58485;59.934;30.352;2022-09-09T03:06:12;7.13;;;2.40;;
65370;SDS011;58485;59.934;30.352;2022-09-09T03:07:05;3.03;;;2.80;;
65370;SDS011;58485;59.934;30.352;2022-09-09T03:07:56;3.00;;;2.58;;
65370;SDS011;58485;59.934;30.352;2022-09-09T03:08:48;2.88;;;2.67;;
65370;SDS011;58485;59.934;30.352;2022-09-09T03:09:40;3.05;;;2.85;;
65370;SDS011;58485;59.934;30.352;2022-09-09T03:10:32;6.78;;;2.40;;
65370;SDS011;58485;59.934;30.352;2022-09-09T03:11:23;2.88;;;2.30;;
65370;SDS011;58485;59.934;30.352;2022-09-09T03:12:16;3.35;;;2.50;;
65370;SDS011;58485;59.934;30.352;2022-09-09T03:13:07;8.18;;;2.70;;
65370;SDS011;58485;59.934;30.352;2022-09-09T03:14:00;2.83;;;2.42;;
65370;SDS011;58485;59.934;30.352;2022-09-09T03:14:52;6.07;;;2.47;;
65370;SDS011;58485;59.934;30.352;2022-09-09T03:15:45;2.58;;;2.38;;
65370;SDS011;58485;59.934;30.352;2022-09-09T03:16:36;2.92;;;2.72;;
65370;SDS011;58485;59.934;30.352;2022-09-09T03:17:28;4.90;;;2.47;;
65370;SDS011;58485;59.934;30.352;2022-09-09T03:18:19;2.63;;;2.15;;
65370;SDS011;58485;59.934;30.352;2022-09-09T03:19:12;4.18;;;2.30;;
65370;SDS011;58485;59.934;30.352;2022-09-09T03:20:03;2.83;;;2.58;;
65370;SDS011;58485;59.934;30.352;2022-09-09T03:20:56;2.20;;;2.00;;
65370;SDS011;58485;59.934;30.352;2022-09-09T03:21:47;2.70;;;2.47;;
65370;SDS011;58485;59.934;30.352;2022-09-09T03:22:40;2.97;;;2.65;;
65370;SDS011;58485;59.934;30.352;2022-09-09T03:23:31;6.25;;;2.35;;
65370;SDS011;58485;59.934;30.352;2022-09-09T03:24:23;3.03;;;2.40;;
65370;SDS011;58485;59.934;30.352;2022-09-09T03:25:14;2.33;;;1.88;;
65370;SDS011;58485;59.934;30.352;2022-09-09T03:26:08;5.60;;;1.95;;
65370;SDS011;58485;59.934;30.352;2022-09-09T03:26:59;4.25;;;2.45;;
65370;SDS011;58485;59.934;30.352;2022-09-09T03:27:51;3.00;;;2.20;;
65370;SDS011;58485;59.934;30.352;2022-09-09T03:28:45;3.40;;;2.60;;
65370;SDS011;58485;59.934;30.352;2022-09-09T03:29:38;2.58;;;2.28;;
65370;SDS011;58485;59.934;30.352;2022-09-09T03:30:29;2.72;;;2.35;;
65370;SDS011;58485;59.934;30.352;2022-09-09T03:31:22;2.30;;;2.10;;
65370;SDS011;58485;59.934;30.352;2022-09-09T03:32:13;3.22;;;2.50;;
65370;SDS011;58485;59.934;30.352;2022-09-09T03:33:05;2.45;;;2.10;;
65370;SDS011;58485;59.934;30.352;2022-09-09T03:33:57;6.57;;;2.50;;
65370;SDS011;58485;59.934;30.352;2022-09-09T03:34:49;1.83;;;1.70;;
65370;SDS011;58485;59.934;30.352;2022-09-09T03:35:44;5.38;;;2.25;;
65370;SDS011;58485;59.934;30.352;2022-09-09T03:36:38;2.38;;;2.17;;
65370;SDS011;58485;59.934;30.352;2022-09-09T03:37:31;2.47;;;2.28;;
65370;SDS011;58485;59.934;30.352;2022-09-09T03:38:23;2.97;;;2.47;;
65370;SDS011;58485;59.934;30.352;2022-09-09T03:39:15;2.30;;;2.20;;
65370;SDS011;58485;59.934;30.352;2022-09-09T03:40:07;2.60;;;2.40;;
65370;SDS011;58485;59.934;30.352;2022-09-09T03:41:01;1.90;;;1.80;;
65370;SDS011;58485;59.934;30.352;2022-09-09T03:41:52;4.47;;;1.88;;
65370;SDS011;58485;59.934;30.352;2022-09-09T03:42:44;2.40;;;2.20;;
65370;SDS011;58485;59.934;30.352;2022-09-09T03:43:35;2.65;;;1.90;;
65370;SDS011;58485;59.934;30.352;2022-09-09T03:44:28;7.22;;;2.00;;
65370;SDS011;58485;59.934;30.352;2022-09-09T03:45:20;2.38;;;2.10;;
65370;SDS011;58485;59.934;30.352;2022-09-09T03:46:11;3.90;;;2.22;;
65370;SDS011;58485;59.934;30.352;2022-09-09T03:47:03;2.30;;;2.10;;
65370;SDS011;58485;59.934;30.352;2022-09-09T03:47:56;2.47;;;2.25;;
65370;SDS011;58485;59.934;30.352;2022-09-09T03:48:47;2.53;;;2.33;;
65370;SDS011;58485;59.934;30.352;2022-09-09T03:49:39;2.25;;;1.77;;
65370;SDS011;58485;59.934;30.352;2022-09-09T03:50:31;2.95;;;2.67;;
65370;SDS011;58485;59.934;30.352;2022-09-09T03:51:23;2.05;;;1.85;;
65370;SDS011;58485;59.934;30.352;2022-09-09T03:52:14;2.35;;;2.15;;
65370;SDS011;58485;59.934;30.352;2022-09-09T03:53:09;4.80;;;1.80;;
65370;SDS011;58485;59.934;30.352;2022-09-09T03:54:00;2.05;;;1.90;;
65370;SDS011;58485;59.934;30.352;2022-09-09T03:54:52;2.08;;;1.98;;
65370;SDS011;58485;59.934;30.352;2022-09-09T03:55:44;3.40;;;2.20;;
65370;SDS011;58485;59.934;30.352;2022-09-09T03:56:37;2.20;;;1.98;;
65370;SDS011;58485;59.934;30.352;2022-09-09T03:57:28;2.33;;;2.13;;
65370;SDS011;58485;59.934;30.352;2022-09-09T03:58:21;4.00;;;2.00;;
65370;SDS011;58485;59.934;30.352;2022-09-09T03:59:14;3.65;;;1.73;;
65370;SDS011;58485;59.934;30.352;2022-09-09T04:00:07;3.65;;;2.40;;
65370;SDS011;58485;59.934;30.352;2022-09-09T04:01:01;1.98;;;1.85;;
65370;SDS011;58485;59.934;30.352;2022-09-09T04:01:56;2.90;;;2.00;;
65370;SDS011;58485;59.934;30.352;2022-09-09T04:02:49;2.75;;;1.60;;
65370;SDS011;58485;59.934;30.352;2022-09-09T04:03:47;2.22;;;2.00;;
65370;SDS011;58485;59.934;30.352;2022-09-09T04:04:38;1.90;;;1.80;;
65370;SDS011;58485;59.934;30.352;2022-09-09T04:05:30;2.20;;;1.85;;
65370;SDS011;58485;59.934;30.352;2022-09-09T04:06:24;2.80;;;1.90;;
65370;SDS011;58485;59.934;30.352;2022-09-09T04:07:16;1.90;;;1.80;;
65370;SDS011;58485;59.934;30.352;2022-09-09T04:08:08;2.25;;;2.05;;
65370;SDS011;58485;59.934;30.352;2022-09-09T04:09:01;3.58;;;2.40;;
65370;SDS011;58485;59.934;30.352;2022-09-09T04:09:53;3.22;;;1.63;;
65370;SDS011;58485;59.934;30.352;2022-09-09T04:10:45;2.05;;;1.95;;
65370;SDS011;58485;59.934;30.352;2022-09-09T04:11:37;3.42;;;2.00;;
65370;SDS011;58485;59.934;30.352;2022-09-09T04:12:29;2.00;;;1.90;;
65370;SDS011;58485;59.934;30.352;2022-09-09T04:13:20;3.35;;;2.42;;
65370;SDS011;58485;59.934;30.352;2022-09-09T04:14:12;2.15;;;1.92;;
65370;SDS011;58485;59.934;30.352;2022-09-09T04:15:04;2.40;;;1.88;;
65370;SDS011;58485;59.934;30.352;2022-09-09T04:15:58;2.10;;;1.88;;
65370;SDS011;58485;59.934;30.352;2022-09-09T04:16:51;2.78;;;2.15;;
65370;SDS011;58485;59.934;30.352;2022-09-09T04:17:44;2.22;;;2.03;;
65370;SDS011;58485;59.934;30.352;2022-09-09T04:18:35;3.97;;;1.85;;
65370;SDS011;58485;59.934;30.352;2022-09-09T04:19:27;2.08;;;1.88;;
65370;SDS011;58485;59.934;30.352;2022-09-09T04:20:18;2.10;;;1.88;;
65370;SDS011;58485;59.934;30.352;2022-09-09T04:21:10;5.25;;;2.22;;
65370;SDS011;58485;59.934;30.352;2022-09-09T04:22:03;4.57;;;1.58;;
65370;SDS011;58485;59.934;30.352;2022-09-09T04:22:55;5.80;;;1.95;;
65370;SDS011;58485;59.934;30.352;2022-09-09T04:23:46;2.30;;;1.50;;
65370;SDS011;58485;59.934;30.352;2022-09-09T04:24:39;1.90;;;1.80;;
65370;SDS011;58485;59.934;30.352;2022-09-09T04:25:30;1.67;;;1.58;;
65370;SDS011;58485;59.934;30.352;2022-09-09T04:26:22;2.25;;;2.03;;
65370;SDS011;58485;59.934;30.352;2022-09-09T04:27:14;1.85;;;1.65;;
65370;SDS011;58485;59.934;30.352;2022-09-09T04:28:06;2.53;;;1.60;;
65370;SDS011;58485;59.934;30.352;2022-09-09T04:28:58;2.42;;;1.70;;
65370;SDS011;58485;59.934;30.352;2022-09-09T04:29:49;2.95;;;2.33;;
65370;SDS011;58485;59.934;30.352;2022-09-09T04:30:41;1.52;;;1.42;;
65370;SDS011;58485;59.934;30.352;2022-09-09T04:31:35;1.92;;;1.73;;
65370;SDS011;58485;59.934;30.352;2022-09-09T04:32:32;2.10;;;1.90;;
65370;SDS011;58485;59.934;30.352;2022-09-09T04:33:23;1.80;;;1.70;;
65370;SDS011;58485;59.934;30.352;2022-09-09T04:34:16;1.80;;;1.70;;
65370;SDS011;58485;59.934;30.352;2022-09-09T04:35:08;3.78;;;2.17;;
65370;SDS011;58485;59.934;30.352;2022-09-09T04:36:00;2.22;;;1.75;;
65370;SDS011;58485;59.934;30.352;2022-09-09T04:36:52;1.95;;;1.70;;
65370;SDS011;58485;59.934;30.352;2022-09-09T04:37:45;2.13;;;1.60;;
65370;SDS011;58485;59.934;30.352;2022-09-09T04:38:36;1.70;;;1.60;;
65370;SDS011;58485;59.934;30.352;2022-09-09T04:39:28;1.92;;;1.73;;
65370;SDS011;58485;59.934;30.352;2022-09-09T04:40:19;2.03;;;1.80;;
65370;SDS011;58485;59.934;30.352;2022-09-09T04:41:12;2.15;;;1.88;;
65370;SDS011;58485;59.934;30.352;2022-09-09T04:42:03;2.05;;;1.85;;
65370;SDS011;58485;59.934;30.352;2022-09-09T04:42:57;1.98;;;1.88;;
65370;SDS011;58485;59.934;30.352;2022-09-09T04:43:48;2.05;;;1.85;;
65370;SDS011;58485;59.934;30.352;2022-09-09T04:44:43;1.88;;;1.77;;
65370;SDS011;58485;59.934;30.352;2022-09-09T04:45:34;1.70;;;1.60;;
65370;SDS011;58485;59.934;30.352;2022-09-09T04:46:27;1.77;;;1.67;;
65370;SDS011;58485;59.934;30.352;2022-09-09T04:47:20;1.80;;;1.70;;
65370;SDS011;58485;59.934;30.352;2022-09-09T04:48:12;1.88;;;1.60;;
65370;SDS011;58485;59.934;30.352;2022-09-09T04:49:04;1.70;;;1.60;;
65370;SDS011;58485;59.934;30.352;2022-09-09T04:49:56;1.48;;;1.38;;
65370;SDS011;58485;59.934;30.352;2022-09-09T04:50:56;1.95;;;1.70;;
65370;SDS011;58485;59.934;30.352;2022-09-09T04:51:50;1.63;;;1.52;;
65370;SDS011;58485;59.934;30.352;2022-09-09T04:52:42;1.90;;;1.80;;
65370;SDS011;58485;59.934;30.352;2022-09-09T04:53:34;2.00;;;1.45;;
65370;SDS011;58485;59.934;30.352;2022-09-09T04:54:25;1.92;;;1.40;;
65370;SDS011;58485;59.934;30.352;2022-09-09T04:55:17;2.25;;;2.05;;
65370;SDS011;58485;59.934;30.352;2022-09-09T04:56:09;1.60;;;1.50;;
65370;SDS011;58485;59.934;30.352;2022-09-09T04:57:04;3.10;;;1.75;;
65370;SDS011;58485;59.934;30.352;2022-09-09T04:57:55;1.90;;;1.20;;
65370;SDS011;58485;59.934;30.352;2022-09-09T04:58:48;1.73;;;1.63;;
65370;SDS011;58485;59.934;30.352;2022-09-09T04:59:39;2.92;;;1.70;;
65370;SDS011;58485;59.934;30.352;2022-09-09T05:00:31;1.60;;;1.35;;
65370;SDS011;58485;59.934;30.352;2022-09-09T05:01:24;1.48;;;1.35;;
65370;SDS011;58485;59.934;30.352;2022-09-09T05:02:17;2.53;;;1.80;;
65370;SDS011;58485;59.934;30.352;2022-09-09T05:03:10;2.08;;;1.58;;
65370;SDS011;58485;59.934;30.352;2022-09-09T05:04:02;1.88;;;1.33;;
65370;SDS011;58485;59.934;30.352;2022-09-09T05:04:54;1.42;;;1.30;;
65370;SDS011;58485;59.934;30.352;2022-09-09T05:05:46;1.52;;;1.40;;
65370;SDS011;58485;59.934;30.352;2022-09-09T05:06:37;1.75;;;1.63;;
65370;SDS011;58485;59.934;30.352;2022-09-09T05:07:30;2.28;;;1.40;;
65370;SDS011;58485;59.934;30.352;2022-09-09T05:08:21;1.67;;;1.58;;
65370;SDS011;58485;59.934;30.352;2022-09-09T05:09:14;1.75;;;1.45;;
65370;SDS011;58485;59.934;30.352;2022-09-09T05:10:06;1.38;;;1.27;;
65370;SDS011;58485;59.934;30.352;2022-09-09T05:10:58;1.60;;;1.48;;
65370;SDS011;58485;59.934;30.352;2022-09-09T05:11:50;2.45;;;2.25;;
65370;SDS011;58485;59.934;30.352;2022-09-09T05:12:42;2.10;;;1.50;;
65370;SDS011;58485;59.934;30.352;2022-09-09T05:13:34;1.85;;;1.45;;
65370;SDS011;58485;59.934;30.352;2022-09-09T05:14:25;1.50;;;1.40;;
65370;SDS011;58485;59.934;30.352;2022-09-09T05:15:18;2.90;;;1.40;;
65370;SDS011;58485;59.934;30.352;2022-09-09T05:16:11;2.05;;;1.60;;
65370;SDS011;58485;59.934;30.352;2022-09-09T05:17:04;1.60;;;1.45;;
65370;SDS011;58485;59.934;30.352;2022-09-09T05:17:56;1.52;;;1.15;;
65370;SDS011;58485;59.934;30.352;2022-09-09T05:18:51;4.15;;;1.50;;
65370;SDS011;58485;59.934;30.352;2022-09-09T05:19:43;1.67;;;1.58;;
65370;SDS011;58485;59.934;30.352;2022-09-09T05:20:35;2.67;;;1.55;;
65370;SDS011;58485;59.934;30.352;2022-09-09T05:21:26;1.50;;;1.13;;
65370;SDS011;58485;59.934;30.352;2022-09-09T05:22:19;1.50;;;1.40;;
65370;SDS011;58485;59.934;30.352;2022-09-09T05:23:10;1.50;;;1.40;;
65370;SDS011;58485;59.934;30.352;2022-09-09T05:24:03;1.50;;;1.40;;
65370;SDS011;58485;59.934;30.352;2022-09-09T05:24:54;1.65;;;1.20;;
65370;SDS011;58485;59.934;30.352;2022-09-09T05:25:54;1.92;;;1.40;;
65370;SDS011;58485;59.934;30.352;2022-09-09T05:26:47;1.35;;;1.25;;
65370;SDS011;58485;59.934;30.352;2022-09-09T05:27:39;1.77;;;1.40;;
65370;SDS011;58485;59.934;30.352;2022-09-09T05:28:30;2.08;;;1.83;;
65370;SDS011;58485;59.934;30.352;2022-09-09T05:29:22;3.33;;;1.35;;
65370;SDS011;58485;59.934;30.352;2022-09-09T05:30:13;3.67;;;1.40;;
65370;SDS011;58485;59.934;30.352;2022-09-09T05:31:07;1.65;;;1.55;;
65370;SDS011;58485;59.934;30.352;2022-09-09T05:31:59;1.42;;;1.27;;
65370;SDS011;58485;59.934;30.352;2022-09-09T05:32:52;1.40;;;1.20;;